createdAt,value
2017-03-05T00:00:25.161Z,60.75
2017-03-05T00:01:34.633Z,61.13
2017-03-05T00:02:43.637Z,60.84
2017-03-05T00:03:53.046Z,61.04
2017-03-05T00:05:02.557Z,61.13
2017-03-05T00:06:11.581Z,61.22
2017-03-05T00:07:20.913Z,61.22
2017-03-05T00:08:29.938Z,60.94
2017-03-05T00:09:39.077Z,60.94
2017-03-05T00:10:48.073Z,60.84
2017-03-05T00:11:57.311Z,61.04
2017-03-05T00:13:06.629Z,60.94
2017-03-05T00:14:15.764Z,61.22
2017-03-05T00:15:25.582Z,61.04
2017-03-05T00:16:35.099Z,60.75
2017-03-05T00:17:44.178Z,60.84
2017-03-05T00:18:53.541Z,60.65
2017-03-05T00:20:02.592Z,60.84
2017-03-05T00:21:11.699Z,61.13
2017-03-05T00:22:20.705Z,61.04
2017-03-05T00:23:29.775Z,61.22
2017-03-05T00:24:39.127Z,61.6
2017-03-05T00:25:48.844Z,61.04
2017-03-05T00:26:58.310Z,60.94
2017-03-05T00:28:07.420Z,61.13
2017-03-05T00:29:16.496Z,60.65
2017-03-05T00:30:25.913Z,60.65
2017-03-05T00:31:35.059Z,60.75
2017-03-05T00:32:44.265Z,61.13
2017-03-05T00:33:53.270Z,61.04
2017-03-05T00:35:02.245Z,60.65
2017-03-05T00:36:11.590Z,60.75
2017-03-05T00:37:20.775Z,60.36
2017-03-05T00:38:29.768Z,60.36
2017-03-05T00:39:38.843Z,60.65
2017-03-05T00:40:48.072Z,60.65
2017-03-05T00:41:57.354Z,60.46
2017-03-05T00:43:06.338Z,60.55
2017-03-05T00:44:15.410Z,60.65
2017-03-05T00:45:24.627Z,60.65
2017-03-05T00:46:33.637Z,60.17
2017-03-05T00:47:43.010Z,60.27
2017-03-05T00:48:52.128Z,60.65
2017-03-05T00:50:01.293Z,60.55
2017-03-05T00:51:10.283Z,60.94
2017-03-05T00:52:19.324Z,60.55
2017-03-05T00:53:28.623Z,61.04
2017-03-05T00:54:37.603Z,60.55
2017-03-05T00:55:46.688Z,61.04
2017-03-05T00:56:55.665Z,61.22
2017-03-05T00:58:04.743Z,60.46
2017-03-05T00:59:14.081Z,61.13
2017-03-05T01:00:23.169Z,60.55
2017-03-05T01:01:32.169Z,60.36
2017-03-05T01:02:41.250Z,60.55
2017-03-05T01:03:50.239Z,60.46
2017-03-05T01:04:59.773Z,60.27
2017-03-05T01:06:08.899Z,60.46
2017-03-05T01:07:18.162Z,60.65
2017-03-05T01:08:27.159Z,60.75
2017-03-05T01:09:36.245Z,60.58
2017-03-05T01:10:45.587Z,60.58
2017-03-05T01:11:54.567Z,60.49
2017-03-05T01:13:03.598Z,60.58
2017-03-05T01:14:13.044Z,60.55
2017-03-05T01:15:22.330Z,60.55
2017-03-05T01:16:31.620Z,60.36
2017-03-05T01:17:40.627Z,60.02
2017-03-05T01:18:49.609Z,59.92
2017-03-05T01:19:58.707Z,59.79
2017-03-05T01:21:07.789Z,59.99
2017-03-05T01:22:17.369Z,59.89
2017-03-05T01:23:26.447Z,59.99
2017-03-05T01:24:35.438Z,60.08
2017-03-05T01:25:44.446Z,59.89
2017-03-05T01:26:53.577Z,59.89
2017-03-05T01:28:02.880Z,59.89
2017-03-05T01:29:12.037Z,59.89
2017-03-05T01:30:21.917Z,59.79
2017-03-05T01:31:30.894Z,59.89
2017-03-05T01:32:39.892Z,60.08
2017-03-05T01:33:49.185Z,59.89
2017-03-05T01:34:58.215Z,59.99
2017-03-05T01:36:07.219Z,59.7
2017-03-05T01:37:16.210Z,59.6
2017-03-05T01:38:25.196Z,59.89
2017-03-05T01:39:34.439Z,59.6
2017-03-05T01:40:43.520Z,59.89
2017-03-05T01:41:52.503Z,59.89
2017-03-05T01:43:01.613Z,60.08
2017-03-05T01:44:10.644Z,59.99
2017-03-05T01:45:19.925Z,59.7
2017-03-05T01:46:28.900Z,59.89
2017-03-05T01:47:37.892Z,59.89
2017-03-05T01:48:46.907Z,59.89
2017-03-05T01:49:55.902Z,59.79
2017-03-05T01:51:05.213Z,59.99
2017-03-05T01:52:14.220Z,59.79
2017-03-05T01:53:23.210Z,59.89
2017-03-05T01:54:32.209Z,59.6
2017-03-05T01:55:41.203Z,59.89
2017-03-05T01:56:50.903Z,59.89
2017-03-05T01:57:59.885Z,59.79
2017-03-05T01:59:08.967Z,59.99
2017-03-05T02:00:18.027Z,60.55
2017-03-05T02:01:27.201Z,60.65
2017-03-05T02:02:36.438Z,60.65
2017-03-05T02:03:45.510Z,60.46
2017-03-05T02:04:54.513Z,60.27
2017-03-05T02:06:03.905Z,60.27
2017-03-05T02:07:12.879Z,60.36
2017-03-05T02:08:22.721Z,60.36
2017-03-05T02:09:31.696Z,60.36
2017-03-05T02:10:40.696Z,60.55
2017-03-05T02:11:49.681Z,60.17
2017-03-05T02:12:58.677Z,60.65
2017-03-05T02:14:07.928Z,60.75
2017-03-05T02:15:17.004Z,61.22
2017-03-05T02:16:25.979Z,60.36
2017-03-05T02:17:34.974Z,60.27
2017-03-05T02:18:44.044Z,60.75
2017-03-05T02:19:53.291Z,60.55
2017-03-05T02:21:02.296Z,60.36
2017-03-05T02:22:11.270Z,60.65
2017-03-05T02:23:20.255Z,60.84
2017-03-05T02:24:29.345Z,61.04
2017-03-05T02:25:38.586Z,61.13
2017-03-05T02:26:47.573Z,60.81
2017-03-05T02:27:56.564Z,61.13
2017-03-05T02:29:05.551Z,61.51
2017-03-05T02:30:14.534Z,61.41
2017-03-05T02:31:23.849Z,61.32
2017-03-05T02:32:32.835Z,61.6
2017-03-05T02:33:41.818Z,61.6
2017-03-05T02:34:50.819Z,61.51
2017-03-05T02:35:59.815Z,61.6
2017-03-05T02:37:09.101Z,61.8
2017-03-05T02:38:18.081Z,61.99
2017-03-05T02:39:27.093Z,61.96
2017-03-05T02:40:36.080Z,61.41
2017-03-05T02:41:45.473Z,61.6
2017-03-05T02:42:54.774Z,61.7
2017-03-05T02:44:04.170Z,61.13
2017-03-05T02:45:13.175Z,61.32
2017-03-05T02:46:22.152Z,61.51
2017-03-05T02:47:31.144Z,61.51
2017-03-05T02:48:40.420Z,61.13
2017-03-05T02:49:49.396Z,60.94
2017-03-05T02:50:58.396Z,61.32
2017-03-05T02:52:07.393Z,60.94
2017-03-05T02:53:16.390Z,60.94
2017-03-05T02:54:25.673Z,60.84
2017-03-05T02:55:34.672Z,60.84
2017-03-05T02:56:43.770Z,60.94
2017-03-05T02:57:52.845Z,60.94
2017-03-05T02:59:01.822Z,61.04
2017-03-05T03:00:11.145Z,61.04
2017-03-05T03:01:20.551Z,60.65
2017-03-05T03:02:29.558Z,60.65
2017-03-05T03:03:38.559Z,60.55
2017-03-05T03:04:47.619Z,60.27
2017-03-05T03:05:56.889Z,60.55
2017-03-05T03:07:06.302Z,60.36
2017-03-05T03:08:15.295Z,60.65
2017-03-05T03:09:24.275Z,60.94
2017-03-05T03:10:33.277Z,60.94
2017-03-05T03:11:42.508Z,60.84
2017-03-05T03:12:51.500Z,61.51
2017-03-05T03:14:00.477Z,61.32
2017-03-05T03:15:09.454Z,61.6
2017-03-05T03:16:18.463Z,61.13
2017-03-05T03:17:27.739Z,61.6
2017-03-05T03:18:36.737Z,60.84
2017-03-05T03:19:45.736Z,61.13
2017-03-05T03:20:54.736Z,60.94
2017-03-05T03:22:03.733Z,60.94
2017-03-05T03:23:13.026Z,61.04
2017-03-05T03:24:22.020Z,61.13
2017-03-05T03:25:31.008Z,60.94
2017-03-05T03:26:39.995Z,61.13
2017-03-05T03:27:49.074Z,61.22
2017-03-05T03:28:58.354Z,61.04
2017-03-05T03:30:07.337Z,60.84
2017-03-05T03:31:16.325Z,60.97
2017-03-05T03:32:25.327Z,60.97
2017-03-05T03:33:34.333Z,60.87
2017-03-05T03:34:43.623Z,60.78
2017-03-05T03:35:52.705Z,61.16
2017-03-05T03:37:01.707Z,61.16
2017-03-05T03:38:10.697Z,60.94
2017-03-05T03:39:19.702Z,60.97
2017-03-05T03:40:28.949Z,60.87
2017-03-05T03:41:37.954Z,60.97
2017-03-05T03:42:47.027Z,61.07
2017-03-05T03:43:56.012Z,61.44
2017-03-05T03:45:05.000Z,61.54
2017-03-05T03:46:14.285Z,61.63
2017-03-05T03:47:23.277Z,61.73
2017-03-05T03:48:32.311Z,62.11
2017-03-05T03:49:41.309Z,62.4
2017-03-05T03:50:50.319Z,62.88
2017-03-05T03:51:59.585Z,62.78
2017-03-05T03:53:08.571Z,62.46
2017-03-05T03:54:17.547Z,62.88
2017-03-05T03:55:26.533Z,63.54
2017-03-05T03:56:35.537Z,63.83
2017-03-05T03:57:44.827Z,64.4
2017-03-05T03:58:53.901Z,64.59
2017-03-05T04:00:02.903Z,65.07
2017-03-05T04:01:11.891Z,65.64
2017-03-05T04:02:20.878Z,65.83
2017-03-05T04:03:30.159Z,66.47
2017-03-05T04:04:39.152Z,66.75
2017-03-05T04:05:48.149Z,66.85
2017-03-05T04:06:57.240Z,67.8
2017-03-05T04:08:06.315Z,67.99
2017-03-05T04:09:15.593Z,68.66
2017-03-05T04:10:25.010Z,68.57
2017-03-05T04:11:34.007Z,69.23
2017-03-05T04:12:43.026Z,69.14
2017-03-05T04:13:52.004Z,69.52
2017-03-05T04:15:01.288Z,69.23
2017-03-05T04:16:10.325Z,69.52
2017-03-05T04:17:19.320Z,70
2017-03-05T04:18:28.723Z,70
2017-03-05T04:19:37.714Z,70.28
2017-03-05T04:20:47.051Z,70.28
2017-03-05T04:21:56.036Z,70.28
2017-03-05T04:23:05.049Z,70.47
2017-03-05T04:24:14.024Z,70.57
2017-03-05T04:25:23.135Z,70.67
2017-03-05T04:26:32.505Z,70.86
2017-03-05T04:27:41.500Z,70.76
2017-03-05T04:28:50.480Z,71.04
2017-03-05T04:29:59.463Z,71.04
2017-03-05T04:31:08.439Z,71.14
2017-03-05T04:32:17.731Z,71.33
2017-03-05T04:33:26.711Z,71.23
2017-03-05T04:34:35.711Z,71.2
2017-03-05T04:35:44.700Z,70.95
2017-03-05T04:36:53.689Z,70.95
2017-03-05T04:38:03.387Z,71.14
2017-03-05T04:39:12.361Z,71.04
2017-03-05T04:40:21.350Z,71.11
2017-03-05T04:41:30.345Z,71.04
2017-03-05T04:42:39.359Z,70.95
2017-03-05T04:43:49.007Z,71.33
2017-03-05T04:44:57.990Z,70.95
2017-03-05T04:46:06.990Z,70.86
2017-03-05T04:47:15.971Z,70.86
2017-03-05T04:48:25.125Z,70.95
2017-03-05T04:49:34.393Z,70.95
2017-03-05T04:50:43.386Z,71.14
2017-03-05T04:51:52.361Z,70.86
2017-03-05T04:53:01.448Z,71.04
2017-03-05T04:54:10.450Z,70.86
2017-03-05T04:55:19.690Z,70.95
2017-03-05T04:56:28.675Z,71.04
2017-03-05T04:57:37.681Z,70.95
2017-03-05T04:58:46.676Z,70.76
2017-03-05T04:59:55.672Z,71.04
2017-03-05T05:01:04.966Z,70.95
2017-03-05T05:02:14.144Z,71.52
2017-03-05T05:03:23.125Z,71.14
2017-03-05T05:04:32.129Z,71.33
2017-03-05T05:05:41.105Z,71.14
2017-03-05T05:06:50.490Z,71.72
2017-03-05T05:07:59.868Z,71.43
2017-03-05T05:09:09.605Z,71.43
2017-03-05T05:10:18.590Z,71.62
2017-03-05T05:11:27.568Z,71.72
2017-03-05T05:12:36.961Z,71.52
2017-03-05T05:13:46.343Z,71.33
2017-03-05T05:14:55.319Z,71.39
2017-03-05T05:16:04.316Z,71.62
2017-03-05T05:17:13.333Z,71.72
2017-03-05T05:18:22.614Z,71.91
2017-03-05T05:19:31.598Z,72.19
2017-03-05T05:20:40.682Z,71.68
2017-03-05T05:21:49.681Z,71.87
2017-03-05T05:22:58.674Z,72.25
2017-03-05T05:24:07.924Z,71.77
2017-03-05T05:25:17.012Z,72.44
2017-03-05T05:26:26.828Z,72.16
2017-03-05T05:27:35.809Z,72.25
2017-03-05T05:28:44.790Z,72.63
2017-03-05T05:29:54.161Z,72.44
2017-03-05T05:31:03.175Z,72.53
2017-03-05T05:32:12.249Z,72.63
2017-03-05T05:33:21.652Z,72.44
2017-03-05T05:34:30.656Z,72.63
2017-03-05T05:35:40.384Z,72.06
2017-03-05T05:36:49.377Z,72.16
2017-03-05T05:37:58.354Z,71.96
2017-03-05T05:39:07.351Z,71.87
2017-03-05T05:40:16.828Z,71.87
2017-03-05T05:41:26.082Z,71.96
2017-03-05T05:42:35.063Z,71.77
2017-03-05T05:43:44.145Z,71.87
2017-03-05T05:44:53.227Z,71.87
2017-03-05T05:46:02.226Z,71.39
2017-03-05T05:47:11.459Z,71.58
2017-03-05T05:48:20.467Z,71.58
2017-03-05T05:49:29.462Z,71.01
2017-03-05T05:50:38.482Z,71.2
2017-03-05T05:51:47.470Z,71.2
2017-03-05T05:52:57.096Z,71.01
2017-03-05T05:54:06.190Z,71.01
2017-03-05T05:55:15.199Z,70.53
2017-03-05T05:56:24.307Z,70.25
2017-03-05T05:57:33.289Z,70.25
2017-03-05T05:58:42.598Z,70.34
2017-03-05T05:59:51.580Z,70.06
2017-03-05T06:01:00.575Z,70.34
2017-03-05T06:02:09.561Z,69.77
2017-03-05T06:03:18.623Z,69.29
2017-03-05T06:04:27.873Z,69.48
2017-03-05T06:05:37.276Z,69.2
2017-03-05T06:06:46.256Z,69.48
2017-03-05T06:07:55.260Z,69.48
2017-03-05T06:09:04.269Z,68.91
2017-03-05T06:10:13.540Z,69.01
2017-03-05T06:11:22.939Z,68.91
2017-03-05T06:12:32.360Z,68.53
2017-03-05T06:13:41.856Z,68.15
2017-03-05T06:14:50.858Z,68.24
2017-03-05T06:16:00.094Z,68.53
2017-03-05T06:17:09.174Z,68.44
2017-03-05T06:18:18.245Z,68.15
2017-03-05T06:19:27.224Z,67.77
2017-03-05T06:20:36.256Z,67.86
2017-03-05T06:21:45.485Z,67.39
2017-03-05T06:22:54.473Z,67.58
2017-03-05T06:24:03.470Z,67.2
2017-03-05T06:25:12.452Z,66.91
2017-03-05T06:26:21.431Z,67
2017-03-05T06:27:30.706Z,67.2
2017-03-05T06:28:39.718Z,67.2
2017-03-05T06:29:48.718Z,67.29
2017-03-05T06:30:57.789Z,66.53
2017-03-05T06:32:07.205Z,66.63
2017-03-05T06:33:16.478Z,66.91
2017-03-05T06:34:25.873Z,66.82
2017-03-05T06:35:34.883Z,66.82
2017-03-05T06:36:43.975Z,66.72
2017-03-05T06:37:53.381Z,66.53
2017-03-05T06:39:02.660Z,66.72
2017-03-05T06:40:11.670Z,66.72
2017-03-05T06:41:20.649Z,66.53
2017-03-05T06:42:29.653Z,66.53
2017-03-05T06:43:38.655Z,66.34
2017-03-05T06:44:47.933Z,65.99
2017-03-05T06:45:56.967Z,65.86
2017-03-05T06:47:05.977Z,65.89
2017-03-05T06:48:14.984Z,65.89
2017-03-05T06:49:23.982Z,65.89
2017-03-05T06:50:33.212Z,66.05
2017-03-05T06:51:42.208Z,65.89
2017-03-05T06:52:51.193Z,66.05
2017-03-05T06:54:00.176Z,66.18
2017-03-05T06:55:09.251Z,65.61
2017-03-05T06:56:18.558Z,65.8
2017-03-05T06:57:27.540Z,65.23
2017-03-05T06:58:36.533Z,65.61
2017-03-05T06:59:45.513Z,65.61
2017-03-05T07:00:54.528Z,65.33
2017-03-05T07:02:03.802Z,65.52
2017-03-05T07:03:12.783Z,65.61
2017-03-05T07:04:21.782Z,65.42
2017-03-05T07:05:31.173Z,64.75
2017-03-05T07:06:40.154Z,64.94
2017-03-05T07:07:49.472Z,64.91
2017-03-05T07:08:58.474Z,64.75
2017-03-05T07:10:07.464Z,64.85
2017-03-05T07:11:16.444Z,64.94
2017-03-05T07:12:25.448Z,64.56
2017-03-05T07:13:34.425Z,65.04
2017-03-05T07:14:43.408Z,64.94
2017-03-05T07:15:52.411Z,64.85
2017-03-05T07:17:01.810Z,64.75
2017-03-05T07:18:11.106Z,64.37
2017-03-05T07:19:20.093Z,64.28
2017-03-05T07:20:29.092Z,64.47
2017-03-05T07:21:38.498Z,64.37
2017-03-05T07:22:47.478Z,64.18
2017-03-05T07:23:56.780Z,64.18
2017-03-05T07:25:05.773Z,64.37
2017-03-05T07:26:14.760Z,64.28
2017-03-05T07:27:23.757Z,64.65
2017-03-05T07:28:32.753Z,64.37
2017-03-05T07:29:42.044Z,64.65
2017-03-05T07:30:51.874Z,64.28
2017-03-05T07:32:00.847Z,64.47
2017-03-05T07:33:09.936Z,64.18
2017-03-05T07:34:18.925Z,64.37
2017-03-05T07:35:28.317Z,64.28
2017-03-05T07:36:37.318Z,64.37
2017-03-05T07:37:46.306Z,64.28
2017-03-05T07:38:55.288Z,64.56
2017-03-05T07:40:04.689Z,64.24
2017-03-05T07:41:14.068Z,64.75
2017-03-05T07:42:23.057Z,64.47
2017-03-05T07:43:32.469Z,64.56
2017-03-05T07:44:41.494Z,64.47
2017-03-05T07:45:50.607Z,64.37
2017-03-05T07:46:59.983Z,64.47
2017-03-05T07:48:08.981Z,64.94
2017-03-05T07:49:17.987Z,65.13
2017-03-05T07:50:26.988Z,64.94
2017-03-05T07:51:36.472Z,64.85
2017-03-05T07:52:45.756Z,64.75
2017-03-05T07:53:54.735Z,65.29
2017-03-05T07:55:03.738Z,65.48
2017-03-05T07:56:12.833Z,65.7
2017-03-05T07:57:21.818Z,65.89
2017-03-05T07:58:31.071Z,66.66
2017-03-05T07:59:40.059Z,67.71
2017-03-05T08:00:49.051Z,68.57
2017-03-05T08:01:58.045Z,68.57
2017-03-05T08:03:07.039Z,69.23
2017-03-05T08:04:16.321Z,69.14
2017-03-05T08:05:25.347Z,69.52
2017-03-05T08:06:34.342Z,69.43
2017-03-05T08:07:43.439Z,69.14
2017-03-05T08:08:52.430Z,69.29
2017-03-05T08:10:01.725Z,69.33
2017-03-05T08:11:10.715Z,68.85
2017-03-05T08:12:19.698Z,69.62
2017-03-05T08:13:28.874Z,68.95
2017-03-05T08:14:37.948Z,68.47
2017-03-05T08:15:47.186Z,68.57
2017-03-05T08:16:56.583Z,68.09
2017-03-05T08:18:05.571Z,67.99
2017-03-05T08:19:14.652Z,67.9
2017-03-05T08:20:24.160Z,67.52
2017-03-05T08:21:33.415Z,67.42
2017-03-05T08:22:42.410Z,67.33
2017-03-05T08:23:51.401Z,67.52
2017-03-05T08:25:00.476Z,66.85
2017-03-05T08:26:09.559Z,67.33
2017-03-05T08:27:19.284Z,67.14
2017-03-05T08:28:28.285Z,67.04
2017-03-05T08:29:37.693Z,66.66
2017-03-05T08:30:46.684Z,66.94
2017-03-05T08:31:56.091Z,66.56
2017-03-05T08:33:05.479Z,66.28
2017-03-05T08:34:14.556Z,66.18
2017-03-05T08:35:23.555Z,65.61
2017-03-05T08:36:32.536Z,65.52
2017-03-05T08:37:41.514Z,65.7
2017-03-05T08:38:50.748Z,65.52
2017-03-05T08:39:59.736Z,65.52
2017-03-05T08:41:08.733Z,65.52
2017-03-05T08:42:17.750Z,64.85
2017-03-05T08:43:26.742Z,64.47
2017-03-05T08:44:35.994Z,64.65
2017-03-05T08:45:44.971Z,64.37
2017-03-05T08:46:53.961Z,64.18
2017-03-05T08:48:02.956Z,64.21
2017-03-05T08:49:11.969Z,63.92
2017-03-05T08:50:21.692Z,63.73
2017-03-05T08:51:30.674Z,63.45
2017-03-05T08:52:39.651Z,62.78
2017-03-05T08:53:48.735Z,62.68
2017-03-05T08:54:57.735Z,62.68
2017-03-05T08:56:06.995Z,62.59
2017-03-05T08:57:16.008Z,62.02
2017-03-05T08:58:25.006Z,61.83
2017-03-05T08:59:33.988Z,61.44
2017-03-05T09:00:43.036Z,61.44
2017-03-05T09:01:52.825Z,61.63
2017-03-05T09:03:02.298Z,60.87
2017-03-05T09:04:11.296Z,60.97
2017-03-05T09:05:20.277Z,61.16
2017-03-05T09:06:29.280Z,61.25
2017-03-05T09:07:38.383Z,61.07
2017-03-05T09:08:47.366Z,60.97
2017-03-05T09:09:56.868Z,60.68
2017-03-05T09:11:05.859Z,60.49
2017-03-05T09:12:14.938Z,61.07
2017-03-05T09:13:24.231Z,60.68
2017-03-05T09:14:33.231Z,60.49
2017-03-05T09:15:42.268Z,60.58
2017-03-05T09:16:51.256Z,60.68
2017-03-05T09:18:00.271Z,60.78
2017-03-05T09:19:09.252Z,60.58
2017-03-05T09:20:18.239Z,60.49
2017-03-05T09:21:27.236Z,60.58
2017-03-05T09:22:36.216Z,60.49
2017-03-05T09:23:45.509Z,60.78
2017-03-05T09:24:54.512Z,60.68
2017-03-05T09:26:03.496Z,60.49
2017-03-05T09:27:12.920Z,60.68
2017-03-05T09:28:22.183Z,60.49
2017-03-05T09:29:31.201Z,60.11
2017-03-05T09:30:40.321Z,60.39
2017-03-05T09:31:49.532Z,60.65
2017-03-05T09:32:58.858Z,60.97
2017-03-05T09:34:08.135Z,60.68
2017-03-05T09:35:17.197Z,60.68
2017-03-05T09:36:26.348Z,60.49
2017-03-05T09:37:35.388Z,60.58
2017-03-05T09:38:44.513Z,60.11
2017-03-05T09:39:53.821Z,60.02
2017-03-05T09:41:02.832Z,59.16
2017-03-05T09:42:11.928Z,59.53
2017-03-05T09:43:20.918Z,59.16
2017-03-05T09:44:29.928Z,59.34
2017-03-05T09:45:39.204Z,59.16
2017-03-05T09:46:48.277Z,58.68
2017-03-05T09:47:57.359Z,58.48
2017-03-05T09:49:06.539Z,58.33
2017-03-05T09:50:15.622Z,58.29
2017-03-05T09:51:25.058Z,58.33
2017-03-05T09:52:34.240Z,57.94
2017-03-05T09:53:43.297Z,58.04
2017-03-05T09:54:52.521Z,57.09
2017-03-05T09:56:01.517Z,56.89
2017-03-05T09:57:10.776Z,56.89
2017-03-05T09:58:19.896Z,57.09
2017-03-05T09:59:29.106Z,57.18
2017-03-05T10:00:38.224Z,56.7
2017-03-05T10:01:47.205Z,56.51
2017-03-05T10:02:56.525Z,55.75
2017-03-05T10:04:05.518Z,56.41
2017-03-05T10:05:14.631Z,56.41
2017-03-05T10:06:24.097Z,55.94
2017-03-05T10:07:33.497Z,55.46
2017-03-05T10:08:43.035Z,54.5
2017-03-05T10:09:52.129Z,54.5
2017-03-05T10:11:01.122Z,54.7
2017-03-05T10:12:10.274Z,54.5
2017-03-05T10:13:19.408Z,54.5
2017-03-05T10:14:28.828Z,54.6
2017-03-05T10:15:37.925Z,54.48
2017-03-05T10:16:46.902Z,54.32
2017-03-05T10:17:55.957Z,54.7
2017-03-05T10:19:05.037Z,54.7
2017-03-05T10:20:14.287Z,54.79
2017-03-05T10:21:23.398Z,54.32
2017-03-05T10:22:32.473Z,54.32
2017-03-05T10:23:41.583Z,53.93
2017-03-05T10:24:50.725Z,53.84
2017-03-05T10:26:00.212Z,53.55
2017-03-05T10:27:09.347Z,54.22
2017-03-05T10:28:18.340Z,54.32
2017-03-05T10:29:27.720Z,53.65
2017-03-05T10:30:36.760Z,53.93
2017-03-05T10:31:46.012Z,53.84
2017-03-05T10:32:54.995Z,53.27
2017-03-05T10:34:03.981Z,53.27
2017-03-05T10:35:12.986Z,53.74
2017-03-05T10:36:21.977Z,53.84
2017-03-05T10:37:31.215Z,53.84
2017-03-05T10:38:40.277Z,53.45
2017-03-05T10:39:49.347Z,53.84
2017-03-05T10:40:58.334Z,53.65
2017-03-05T10:42:08.281Z,53.45
2017-03-05T10:43:17.644Z,53.67
2017-03-05T10:44:26.626Z,52.62
2017-03-05T10:45:35.764Z,52.31
2017-03-05T10:46:44.830Z,52.24
2017-03-05T10:47:54.055Z,52.15
2017-03-05T10:49:03.363Z,51.26
2017-03-05T10:50:12.370Z,51.67
2017-03-05T10:51:21.377Z,52.12
2017-03-05T10:52:30.377Z,51.93
2017-03-05T10:53:39.456Z,52.12
2017-03-05T10:54:48.799Z,51.74
2017-03-05T10:55:58.028Z,52.4
2017-03-05T10:57:07.033Z,52.22
2017-03-05T10:58:16.113Z,52.59
2017-03-05T10:59:26.253Z,52.22
2017-03-05T11:00:35.560Z,52.31
2017-03-05T11:01:44.656Z,52.31
2017-03-05T11:02:53.638Z,51.83
2017-03-05T11:04:02.636Z,51.74
2017-03-05T11:05:11.626Z,52.12
2017-03-05T11:06:20.953Z,51.93
2017-03-05T11:07:29.936Z,51.83
2017-03-05T11:08:38.928Z,52.31
2017-03-05T11:09:48.334Z,51.64
2017-03-05T11:10:57.318Z,51.83
2017-03-05T11:12:06.649Z,51.93
2017-03-05T11:13:15.706Z,51.67
2017-03-05T11:14:24.797Z,51.48
2017-03-05T11:15:33.852Z,51.48
2017-03-05T11:16:42.944Z,51.48
2017-03-05T11:17:52.189Z,51.38
2017-03-05T11:19:01.392Z,51
2017-03-05T11:20:10.405Z,51
2017-03-05T11:21:19.388Z,51
2017-03-05T11:22:28.389Z,51.48
2017-03-05T11:23:37.770Z,51.67
2017-03-05T11:24:46.779Z,51.38
2017-03-05T11:25:55.901Z,50.9
2017-03-05T11:27:04.899Z,51.09
2017-03-05T11:28:14.526Z,50.52
2017-03-05T11:29:23.822Z,50.9
2017-03-05T11:30:32.852Z,51
2017-03-05T11:31:41.981Z,50.9
2017-03-05T11:32:50.970Z,50.33
2017-03-05T11:34:00.079Z,50.71
2017-03-05T11:35:09.379Z,49.85
2017-03-05T11:36:19.050Z,49.85
2017-03-05T11:37:28.723Z,49.47
2017-03-05T11:38:37.879Z,48.8
2017-03-05T11:39:47.245Z,48.8
2017-03-05T11:40:56.557Z,49.47
2017-03-05T11:42:05.548Z,48.9
2017-03-05T11:43:15.256Z,48.8
2017-03-05T11:44:24.274Z,48.9
2017-03-05T11:45:33.283Z,49.28
2017-03-05T11:46:43.220Z,49.09
2017-03-05T11:47:52.215Z,49.28
2017-03-05T11:49:01.206Z,49.18
2017-03-05T11:50:10.200Z,49.83
2017-03-05T11:51:20.163Z,49.54
2017-03-05T11:52:31.792Z,50.02
2017-03-05T11:53:40.786Z,50.02
2017-03-05T11:54:49.781Z,49.93
2017-03-05T11:55:59.018Z,50.4
2017-03-05T11:57:08.149Z,50.02
2017-03-05T11:58:17.631Z,50.88
2017-03-05T11:59:26.673Z,50.81
2017-03-05T12:00:35.675Z,50.62
2017-03-05T12:01:44.739Z,50.81
2017-03-05T12:02:54.260Z,50.33
2017-03-05T12:04:03.571Z,50.14
2017-03-05T12:05:12.777Z,49.95
2017-03-05T12:06:21.869Z,49.95
2017-03-05T12:07:30.877Z,49.76
2017-03-05T12:08:39.867Z,50.04
2017-03-05T12:09:49.135Z,49.85
2017-03-05T12:10:58.524Z,49.66
2017-03-05T12:12:07.657Z,49.57
2017-03-05T12:13:17.153Z,50.07
2017-03-05T12:14:26.139Z,49.38
2017-03-05T12:15:35.392Z,49.3
2017-03-05T12:16:44.382Z,49.11
2017-03-05T12:17:53.397Z,49.49
2017-03-05T12:19:02.481Z,48.83
2017-03-05T12:20:11.505Z,48.83
2017-03-05T12:21:20.751Z,47.87
2017-03-05T12:22:29.754Z,47.97
2017-03-05T12:23:38.918Z,47.78
2017-03-05T12:24:47.926Z,47.58
2017-03-05T12:25:56.940Z,47.39
2017-03-05T12:27:06.177Z,47.49
2017-03-05T12:28:15.263Z,47.2
2017-03-05T12:29:24.270Z,46.72
2017-03-05T12:30:33.273Z,46.82
2017-03-05T12:31:42.262Z,46.92
2017-03-05T12:32:51.626Z,46.72
2017-03-05T12:34:00.645Z,46.82
2017-03-05T12:35:10.042Z,47.2
2017-03-05T12:36:19.036Z,47.2
2017-03-05T12:37:28.020Z,46.82
2017-03-05T12:38:37.313Z,46.82
2017-03-05T12:39:46.305Z,46.82
2017-03-05T12:40:55.294Z,47.01
2017-03-05T12:42:04.683Z,47.49
2017-03-05T12:43:13.672Z,47.01
2017-03-05T12:44:22.913Z,46.92
2017-03-05T12:45:31.981Z,46.72
2017-03-05T12:46:40.985Z,46.82
2017-03-05T12:47:49.976Z,46.25
2017-03-05T12:48:59.381Z,46.34
2017-03-05T12:50:08.707Z,45.96
2017-03-05T12:51:17.720Z,45.67
2017-03-05T12:52:26.807Z,45.67
2017-03-05T12:53:35.790Z,45.48
2017-03-05T12:54:44.843Z,45.48
2017-03-05T12:55:54.084Z,45.58
2017-03-05T12:57:03.074Z,45.6
2017-03-05T12:58:12.091Z,45.12
2017-03-05T12:59:21.509Z,45.41
2017-03-05T13:00:30.918Z,45.22
2017-03-05T13:01:40.150Z,44.84
2017-03-05T13:02:49.146Z,44.55
2017-03-05T13:03:58.161Z,44.26
2017-03-05T13:05:07.152Z,45.03
2017-03-05T13:06:16.145Z,44.84
2017-03-05T13:07:25.432Z,44.93
2017-03-05T13:08:34.623Z,44.74
2017-03-05T13:09:44.038Z,45.29
2017-03-05T13:10:53.213Z,45.29
2017-03-05T13:12:02.308Z,45.48
2017-03-05T13:13:11.924Z,45.1
2017-03-05T13:14:20.941Z,45.39
2017-03-05T13:15:29.944Z,45.48
2017-03-05T13:16:39.035Z,45.48
2017-03-05T13:17:48.030Z,45.67
2017-03-05T13:18:57.373Z,46.25
2017-03-05T13:20:06.394Z,45.87
2017-03-05T13:21:15.664Z,46.25
2017-03-05T13:22:24.916Z,46.34
2017-03-05T13:23:34.153Z,45.67
2017-03-05T13:24:43.590Z,45.48
2017-03-05T13:25:52.637Z,45.39
2017-03-05T13:27:01.638Z,46.25
2017-03-05T13:28:10.634Z,46.53
2017-03-05T13:29:19.621Z,46.25
2017-03-05T13:30:28.959Z,46.15
2017-03-05T13:31:37.949Z,46.06
2017-03-05T13:32:46.945Z,46.25
2017-03-05T13:33:55.920Z,46.25
2017-03-05T13:35:05.339Z,46.53
2017-03-05T13:36:14.623Z,46.63
2017-03-05T13:37:23.618Z,46.53
2017-03-05T13:38:32.707Z,46.44
2017-03-05T13:39:41.713Z,46.82
2017-03-05T13:40:50.693Z,47.11
2017-03-05T13:41:59.986Z,47.18
2017-03-05T13:43:08.964Z,47.39
2017-03-05T13:44:17.958Z,47.49
2017-03-05T13:45:26.970Z,47.75
2017-03-05T13:46:35.974Z,48.16
2017-03-05T13:47:44.967Z,47.56
2017-03-05T13:48:53.961Z,47.47
2017-03-05T13:50:03.363Z,47.37
2017-03-05T13:51:12.388Z,47.37
2017-03-05T13:52:21.399Z,47.47
2017-03-05T13:53:30.388Z,47.37
2017-03-05T13:54:39.486Z,47.47
2017-03-05T13:55:48.460Z,47.85
2017-03-05T13:56:57.455Z,47.27
2017-03-05T13:58:06.436Z,47.27
2017-03-05T13:59:15.437Z,47.75
2017-03-05T14:00:24.506Z,47.37
2017-03-05T14:01:33.983Z,47.49
2017-03-05T14:02:42.976Z,47.47
2017-03-05T14:03:51.969Z,47.39
2017-03-05T14:05:00.949Z,47.3
2017-03-05T14:06:09.946Z,46.63
2017-03-05T14:07:19.352Z,46.53
2017-03-05T14:08:28.333Z,46.34
2017-03-05T14:09:37.416Z,46.15
2017-03-05T14:10:46.895Z,46.34
2017-03-05T14:11:56.119Z,45.87
2017-03-05T14:13:05.407Z,46.15
2017-03-05T14:14:14.402Z,45.29
2017-03-05T14:15:23.405Z,45.39
2017-03-05T14:16:32.397Z,45.29
2017-03-05T14:17:41.409Z,45.29
2017-03-05T14:18:50.716Z,45.58
2017-03-05T14:19:59.695Z,45.39
2017-03-05T14:21:08.776Z,45.2
2017-03-05T14:22:17.785Z,45.2
2017-03-05T14:23:26.769Z,45.29
2017-03-05T14:24:36.175Z,45.2
2017-03-05T14:25:45.211Z,45.48
2017-03-05T14:26:54.213Z,45.22
2017-03-05T14:28:03.295Z,45.39
2017-03-05T14:29:12.377Z,45.22
2017-03-05T14:30:21.752Z,45.29
2017-03-05T14:31:30.752Z,45.31
2017-03-05T14:32:39.765Z,44.65
2017-03-05T14:33:48.773Z,44.91
2017-03-05T14:34:57.776Z,45.31
2017-03-05T14:36:07.063Z,45.31
2017-03-05T14:37:16.041Z,45.7
2017-03-05T14:38:25.044Z,45.51
2017-03-05T14:39:34.466Z,45.51
2017-03-05T14:40:43.463Z,45.6
2017-03-05T14:41:52.769Z,45.41
2017-03-05T14:43:01.791Z,45.51
2017-03-05T14:44:10.864Z,45.67
2017-03-05T14:45:19.858Z,45.89
2017-03-05T14:46:28.900Z,46.08
2017-03-05T14:47:38.186Z,45.98
2017-03-05T14:48:47.200Z,46.34
2017-03-05T14:49:56.202Z,46.37
2017-03-05T14:51:05.197Z,46.53
2017-03-05T14:52:14.198Z,46.15
2017-03-05T14:53:23.441Z,46.53